createdAt,value
2022-11-15T00:02:06.866Z,100277.50
2022-11-15T00:04:51.830Z,100275.09
2022-11-15T00:07:55.176Z,100269.00
2022-11-15T00:10:41.348Z,100265.56
2022-11-15T00:13:26.397Z,100275.81
2022-11-15T00:16:11.787Z,100273.28
2022-11-15T00:18:56.603Z,100263.84
2022-11-15T00:21:42.101Z,100269.03
2022-11-15T00:24:27.057Z,100267.38
2022-11-15T00:27:12.481Z,100275.91
2022-11-15T00:29:57.775Z,100277.81
2022-11-15T00:32:42.955Z,100269.28
2022-11-15T00:35:27.856Z,100264.28
2022-11-15T00:38:12.896Z,100270.25
2022-11-15T00:40:58.083Z,100270.31
2022-11-15T00:43:43.055Z,100260.06
2022-11-15T00:46:28.283Z,100265.22
2022-11-15T00:49:13.156Z,100267.84
2022-11-15T00:51:58.037Z,100264.41
2022-11-15T00:54:43.003Z,100261.94
2022-11-15T00:57:28.224Z,100250.00
2022-11-15T01:00:14.560Z,100243.16
2022-11-15T01:03:01.149Z,100245.91
2022-11-15T01:05:46.247Z,100234.59
2022-11-15T01:08:31.354Z,100228.72
2022-11-15T01:11:16.822Z,100223.63
2022-11-15T01:14:02.043Z,100218.38
2022-11-15T01:16:47.103Z,100217.59
2022-11-15T01:19:32.106Z,100220.13
2022-11-15T01:22:17.568Z,100224.47
2022-11-15T01:25:02.498Z,100227.13
2022-11-15T01:27:47.862Z,100223.75
2022-11-15T01:30:33.307Z,100219.44
2022-11-15T01:33:18.404Z,100212.63
2022-11-15T01:36:08.914Z,100205.75
2022-11-15T01:39:03.165Z,100222.03
2022-11-15T01:41:48.217Z,100219.63
2022-11-15T01:44:44.221Z,100223.81
2022-11-15T01:47:32.202Z,100234.81
2022-11-15T01:50:23.003Z,100237.41
2022-11-15T01:53:08.384Z,100252.75
2022-11-15T01:55:54.849Z,100247.53
2022-11-15T01:58:41.950Z,100243.31
2022-11-15T02:01:27.748Z,100248.41
2022-11-15T02:04:34.730Z,100245.88
2022-11-15T02:07:22.635Z,100250.22
2022-11-15T02:10:12.094Z,100241.59
2022-11-15T02:12:59.503Z,100240.72
2022-11-15T02:16:09.293Z,100240.81
2022-11-15T02:19:41.360Z,100250.31
2022-11-15T02:22:35.578Z,100231.38
2022-11-15T02:25:39.183Z,100229.69
2022-11-15T02:28:49.256Z,100227.09
2022-11-15T02:31:52.402Z,100231.41
2022-11-15T02:34:49.248Z,100226.28
2022-11-15T02:37:46.058Z,100224.63
2022-11-15T02:40:38.365Z,100233.28
2022-11-15T02:43:32.619Z,100228.13
2022-11-15T02:46:24.191Z,100220.38
2022-11-15T02:49:12.217Z,100223.03
2022-11-15T02:51:57.420Z,100223.06
2022-11-15T02:54:42.430Z,100211.03
2022-11-15T02:57:52.238Z,100217.09
2022-11-15T03:00:48.103Z,100212.00
2022-11-15T03:03:58.100Z,100215.50
2022-11-15T03:07:04.834Z,100210.44
2022-11-15T03:10:07.468Z,100211.38
2022-11-15T03:13:00.827Z,100214.88
2022-11-15T03:15:56.024Z,100203.63
2022-11-15T03:18:50.908Z,100214.06
2022-11-15T03:21:38.236Z,100205.44
2022-11-15T03:24:26.276Z,100210.66
2022-11-15T03:27:16.524Z,100202.94
2022-11-15T03:30:06.324Z,100207.25
2022-11-15T03:32:57.262Z,100202.09
2022-11-15T03:35:45.490Z,100203.88
2022-11-15T03:38:35.060Z,100200.41
2022-11-15T03:41:45.077Z,100203.00
2022-11-15T03:44:57.654Z,100202.13
2022-11-15T03:47:45.230Z,100194.31
2022-11-15T03:50:30.565Z,100202.94
2022-11-15T03:53:15.708Z,100202.03
2022-11-15T03:56:01.029Z,100203.75
2022-11-15T03:58:45.831Z,100207.97
2022-11-15T04:01:31.297Z,100218.25
2022-11-15T04:04:16.561Z,100211.38
2022-11-15T04:07:01.862Z,100207.91
2022-11-15T04:09:47.105Z,100207.91
2022-11-15T04:12:34.536Z,100196.75
2022-11-15T04:15:23.110Z,100195.09
2022-11-15T04:18:08.312Z,100199.44
2022-11-15T04:20:53.772Z,100202.88
2022-11-15T04:23:38.651Z,100190.00
2022-11-15T04:26:24.574Z,100185.72
2022-11-15T04:29:09.725Z,100191.81
2022-11-15T04:31:55.134Z,100187.53
2022-11-15T04:34:40.426Z,100196.94
2022-11-15T04:37:25.407Z,100197.78
2022-11-15T04:40:10.582Z,100201.22
2022-11-15T04:43:00.801Z,100209.81
2022-11-15T04:45:48.628Z,100207.19
2022-11-15T04:48:34.077Z,100204.63
2022-11-15T04:51:19.705Z,100184.91
2022-11-15T04:54:04.892Z,100186.66
2022-11-15T04:56:50.151Z,100186.63
2022-11-15T04:59:35.033Z,100184.03
2022-11-15T05:02:20.081Z,100182.38
2022-11-15T05:05:05.427Z,100185.81
2022-11-15T05:07:51.255Z,100177.22
2022-11-15T05:10:36.375Z,100173.72
2022-11-15T05:13:21.320Z,100181.53
2022-11-15T05:16:06.886Z,100170.34
2022-11-15T05:18:55.592Z,100185.00
2022-11-15T05:21:40.694Z,100186.72
2022-11-15T05:24:25.593Z,100183.25
2022-11-15T05:27:10.619Z,100182.38
2022-11-15T05:29:56.002Z,100178.94
2022-11-15T05:32:41.824Z,100169.53
2022-11-15T05:35:35.434Z,100180.72
2022-11-15T05:38:20.465Z,100165.25
2022-11-15T05:41:06.873Z,100161.75
2022-11-15T05:43:52.570Z,100169.47
2022-11-15T05:46:39.655Z,100172.03
2022-11-15T05:49:27.772Z,100174.56
2022-11-15T05:52:16.604Z,100178.97
2022-11-15T05:55:03.880Z,100172.94
2022-11-15T05:57:49.167Z,100169.47
2022-11-15T06:00:34.572Z,100166.88
2022-11-15T06:03:19.798Z,100169.41
2022-11-15T06:06:04.856Z,100159.97
2022-11-15T06:08:50.064Z,100169.44
2022-11-15T06:11:35.476Z,100159.09
2022-11-15T06:14:20.492Z,100159.13
2022-11-15T06:17:11.048Z,100151.31
2022-11-15T06:19:56.739Z,100153.94
2022-11-15T06:22:41.414Z,100161.72
2022-11-15T06:25:27.980Z,100166.84
2022-11-15T06:28:12.974Z,100179.84
2022-11-15T06:31:06.429Z,100174.66
2022-11-15T06:33:51.571Z,100173.81
2022-11-15T06:36:36.777Z,100180.63
2022-11-15T06:39:21.829Z,100173.72
2022-11-15T06:42:08.670Z,100181.50
2022-11-15T06:44:53.678Z,100182.38
2022-11-15T06:47:46.870Z,100180.69
2022-11-15T06:50:32.059Z,100184.16
2022-11-15T06:53:17.524Z,100185.94
2022-11-15T06:56:07.369Z,100190.22
2022-11-15T06:58:52.359Z,100189.41
2022-11-15T07:01:37.404Z,100182.53
2022-11-15T07:04:22.705Z,100198.94
2022-11-15T07:07:07.846Z,100193.81
2022-11-15T07:09:53.012Z,100195.53
2022-11-15T07:12:38.329Z,100194.69
2022-11-15T07:15:26.100Z,100194.69
2022-11-15T07:18:11.319Z,100199.00
2022-11-15T07:20:56.617Z,100203.31
2022-11-15T07:23:41.703Z,100204.22
2022-11-15T07:26:27.037Z,100207.69
2022-11-15T07:29:12.582Z,100202.50
2022-11-15T07:32:04.208Z,100211.16
2022-11-15T07:34:49.439Z,100206.88
2022-11-15T07:37:34.346Z,100205.16
2022-11-15T07:40:19.099Z,100206.91
2022-11-15T07:43:08.237Z,100206.94
2022-11-15T07:45:58.651Z,100200.94
2022-11-15T07:48:45.547Z,100206.19
2022-11-15T07:51:30.896Z,100194.13
2022-11-15T07:54:16.324Z,100191.56
2022-11-15T07:57:06.835Z,100197.63
2022-11-15T07:59:52.833Z,100196.81
2022-11-15T08:02:37.799Z,100199.41
2022-11-15T08:05:23.216Z,100196.06
2022-11-15T08:08:11.146Z,100191.78
2022-11-15T08:10:58.471Z,100185.75
2022-11-15T08:13:43.309Z,100171.97
2022-11-15T08:16:28.267Z,100165.06
2022-11-15T08:19:13.151Z,100159.88
2022-11-15T08:21:58.405Z,100161.63
2022-11-15T08:24:43.465Z,100158.16
2022-11-15T08:27:28.312Z,100153.81
2022-11-15T08:30:14.066Z,100147.78
2022-11-15T08:32:59.438Z,100137.41
2022-11-15T08:35:45.103Z,100139.13
2022-11-15T08:38:30.482Z,100138.25
2022-11-15T08:41:28.506Z,100133.91
2022-11-15T08:44:13.862Z,100125.25
2022-11-15T08:46:59.209Z,100109.63
2022-11-15T08:49:44.723Z,100101.84
2022-11-15T08:52:29.770Z,100101.81
2022-11-15T08:55:16.897Z,100099.19
2022-11-15T08:58:02.554Z,100100.91
2022-11-15T09:00:47.830Z,100098.28
2022-11-15T09:03:32.947Z,100094.81
2022-11-15T09:06:17.701Z,100093.09
2022-11-15T09:09:03.776Z,100092.22
2022-11-15T09:11:49.060Z,100089.63
2022-11-15T09:14:35.095Z,100091.34
2022-11-15T09:17:24.662Z,100088.72
2022-11-15T09:20:10.347Z,100093.88
2022-11-15T09:22:55.017Z,100081.72
2022-11-15T09:25:40.494Z,100067.81
2022-11-15T09:28:25.416Z,100050.47
2022-11-15T09:31:10.625Z,100042.72
2022-11-15T09:33:56.495Z,100039.25
2022-11-15T09:36:41.584Z,100044.47
2022-11-15T09:39:27.097Z,100040.09
2022-11-15T09:42:33.304Z,100035.63
2022-11-15T09:45:29.540Z,100014.81
2022-11-15T09:48:39.230Z,100018.31
2022-11-15T09:51:30.078Z,100021.78
2022-11-15T09:54:52.349Z,100001.03
2022-11-15T09:57:36.051Z,100007.84
2022-11-15T10:00:46.084Z,100001.75
2022-11-15T10:03:35.652Z,99986.09
2022-11-15T10:06:26.233Z,99997.38
2022-11-15T10:09:23.797Z,99968.03
2022-11-15T10:12:11.069Z,99964.47
2022-11-15T10:15:15.159Z,99946.31
2022-11-15T10:18:44.688Z,99937.69
2022-11-15T10:21:45.148Z,99940.19
2022-11-15T10:24:41.409Z,99926.31
2022-11-15T10:27:26.607Z,99935.75
2022-11-15T10:30:14.477Z,99920.13
2022-11-15T10:33:11.184Z,99924.44
2022-11-15T10:36:17.798Z,99914.91
2022-11-15T10:39:04.082Z,99927.88
2022-11-15T10:41:50.099Z,99907.13
2022-11-15T10:44:43.675Z,99922.75
2022-11-15T10:47:39.251Z,99908.00
2022-11-15T10:50:31.414Z,99899.88
2022-11-15T10:53:20.724Z,99897.19
2022-11-15T10:56:14.260Z,99895.47
2022-11-15T10:59:00.740Z,99892.78
2022-11-15T11:01:47.925Z,99883.34
2022-11-15T11:04:51.447Z,99881.63
2022-11-15T11:07:38.579Z,99897.22
2022-11-15T11:10:50.312Z,99886.06
2022-11-15T11:13:38.167Z,99880.91
2022-11-15T11:16:42.119Z,99885.25
2022-11-15T11:19:49.748Z,99879.88
2022-11-15T11:22:47.991Z,99866.25
2022-11-15T11:25:40.673Z,99849.72
2022-11-15T11:28:35.061Z,99835.78
2022-11-15T11:31:39.478Z,99854.56
2022-11-15T11:35:02.608Z,99825.00
2022-11-15T11:37:56.353Z,99825.66
2022-11-15T11:40:53.235Z,99818.25
2022-11-15T11:43:56.505Z,99797.81
2022-11-15T11:46:52.840Z,99809.53
2022-11-15T11:49:41.307Z,99809.31
2022-11-15T11:52:34.012Z,99820.00
2022-11-15T11:55:42.084Z,99804.63
2022-11-15T11:58:42.586Z,99801.09
2022-11-15T12:01:35.244Z,99803.19
2022-11-15T12:04:26.180Z,99782.34
2022-11-15T12:07:33.441Z,99770.72
2022-11-15T12:10:24.730Z,99755.09
2022-11-15T12:13:20.350Z,99741.84
2022-11-15T12:16:13.336Z,99743.53
2022-11-15T12:19:02.503Z,99719.59
2022-11-15T12:21:56.629Z,99731.44
2022-11-15T12:24:47.037Z,99736.28
2022-11-15T12:27:41.212Z,99719.75
2022-11-15T12:30:32.488Z,99735.69
2022-11-15T12:33:36.254Z,99744.09
2022-11-15T12:36:24.179Z,99725.56
2022-11-15T12:39:10.781Z,99724.41
2022-11-15T12:41:55.986Z,99725.69
2022-11-15T12:44:41.730Z,99735.56
2022-11-15T12:47:28.015Z,99721.38
2022-11-15T12:57:48.624Z,99659.78
2022-11-15T13:00:33.605Z,99673.41
2022-11-15T13:03:22.625Z,99655.22
2022-11-15T13:06:10.572Z,99659.94
2022-11-15T13:08:55.613Z,99666.59
2022-11-15T13:11:56.276Z,99660.91
2022-11-15T13:14:46.179Z,99666.53
2022-11-15T13:17:37.510Z,99657.72
2022-11-15T13:20:33.574Z,99644.19
2022-11-15T13:23:18.821Z,99637.88
2022-11-15T13:26:06.934Z,99650.66
2022-11-15T13:28:52.868Z,99644.00
2022-11-15T13:31:42.917Z,99631.03
2022-11-15T13:34:50.967Z,99624.53
2022-11-15T13:37:36.474Z,99645.56
2022-11-15T13:40:36.744Z,99662.13
2022-11-15T13:43:22.043Z,99664.03
2022-11-15T13:46:27.307Z,99652.81
2022-11-15T13:49:12.273Z,99603.88
2022-11-15T13:51:57.457Z,99636.28
2022-11-15T13:55:13.173Z,99609.44
2022-11-15T13:58:01.664Z,99596.63
2022-11-15T14:00:46.834Z,99595.72
2022-11-15T14:03:35.733Z,99605.31
2022-11-15T14:06:23.336Z,99605.34
2022-11-15T14:09:11.510Z,99585.91
2022-11-15T14:11:57.815Z,99599.47
2022-11-15T14:14:47.582Z,99599.78
2022-11-15T14:17:38.094Z,99606.50
2022-11-15T14:20:26.456Z,99616.91
2022-11-15T14:23:28.470Z,99585.50
2022-11-15T14:26:33.329Z,99588.69
2022-11-15T14:29:29.717Z,99568.16
2022-11-15T14:32:21.133Z,99584.38
2022-11-15T14:35:14.708Z,99593.56
2022-11-15T14:37:59.928Z,99592.22
2022-11-15T14:40:45.215Z,99618.56
2022-11-15T14:43:30.777Z,99630.66
2022-11-15T14:46:16.239Z,99629.03
2022-11-15T14:49:01.103Z,99627.25
2022-11-15T14:51:46.353Z,99626.56
2022-11-15T14:54:31.756Z,99625.78
2022-11-15T14:57:16.705Z,99653.47
2022-11-15T15:00:02.134Z,99652.53
2022-11-15T15:02:48.644Z,99626.47
2022-11-15T15:05:35.258Z,99619.22
2022-11-15T15:08:20.657Z,99634.06
2022-11-15T15:11:14.184Z,99629.91
2022-11-15T15:13:59.220Z,99634.25
2022-11-15T15:16:44.530Z,99641.34
2022-11-15T15:19:30.002Z,99638.72
2022-11-15T15:22:17.551Z,99624.06
2022-11-15T15:25:03.010Z,99617.97
2022-11-15T15:27:48.336Z,99621.56
2022-11-15T15:30:33.389Z,99624.22
2022-11-15T15:33:18.425Z,99624.34
2022-11-15T15:36:04.799Z,99632.19
2022-11-15T15:38:49.663Z,99645.16
2022-11-15T15:41:38.256Z,99651.34
2022-11-15T15:44:23.664Z,99635.59
2022-11-15T15:47:14.452Z,99633.97
2022-11-15T15:49:59.520Z,99640.66
2022-11-15T15:52:44.548Z,99664.94
2022-11-15T15:55:32.386Z,99672.00
2022-11-15T15:58:17.775Z,99672.91
2022-11-15T16:01:02.686Z,99680.72
2022-11-15T16:03:48.019Z,99684.19
2022-11-15T16:06:37.728Z,99687.81
2022-11-15T16:09:23.220Z,99677.38
2022-11-15T16:12:08.808Z,99674.88
2022-11-15T16:14:54.123Z,99688.75
2022-11-15T16:17:48.138Z,99678.38
2022-11-15T16:20:39.124Z,99686.25
2022-11-15T16:23:24.303Z,99683.72
2022-11-15T16:26:29.745Z,99695.13
2022-11-15T16:29:15.197Z,99690.75
2022-11-15T16:32:00.210Z,99688.16
2022-11-15T16:34:49.082Z,99686.50
2022-11-15T16:37:34.670Z,99686.53
2022-11-15T16:40:19.630Z,99683.09
2022-11-15T16:43:04.591Z,99685.78
2022-11-15T16:45:51.011Z,99687.44
2022-11-15T16:48:36.303Z,99688.28
2022-11-15T16:51:23.530Z,99690.84
2022-11-15T16:54:08.827Z,99689.09
2022-11-15T16:56:54.222Z,99686.59
2022-11-15T16:59:39.162Z,99688.28
2022-11-15T17:02:24.718Z,99688.25
2022-11-15T17:05:13.564Z,99684.84
2022-11-15T17:08:02.306Z,99677.06
2022-11-15T17:10:47.472Z,99679.59
2022-11-15T17:13:32.778Z,99685.63
2022-11-15T17:16:18.580Z,99679.63
2022-11-15T17:19:04.962Z,99676.22
2022-11-15T17:21:50.013Z,99682.31
2022-11-15T17:24:35.210Z,99685.75
2022-11-15T17:27:20.156Z,99678.03
2022-11-15T17:30:07.047Z,99677.22
2022-11-15T17:32:52.532Z,99673.75
2022-11-15T17:35:37.271Z,99679.81
2022-11-15T17:38:22.805Z,99680.63
2022-11-15T17:41:12.219Z,99677.19
2022-11-15T17:43:58.204Z,99673.63
2022-11-15T17:46:44.298Z,99676.28
2022-11-15T17:49:35.198Z,99671.00
2022-11-15T17:52:20.109Z,99675.34
2022-11-15T17:55:05.486Z,99678.84
2022-11-15T17:57:50.834Z,99679.69
2022-11-15T18:00:35.735Z,99669.22
2022-11-15T18:03:21.104Z,99666.63
2022-11-15T18:06:07.640Z,99668.38
2022-11-15T18:08:54.354Z,99665.75
2022-11-15T18:11:41.884Z,99664.06
2022-11-15T18:14:27.199Z,99672.72
2022-11-15T18:17:12.436Z,99672.75
2022-11-15T18:19:57.382Z,99665.78
2022-11-15T18:22:42.723Z,99664.06
2022-11-15T18:25:28.092Z,99670.13
2022-11-15T18:28:13.418Z,99664.97
2022-11-15T18:30:59.576Z,99658.84
2022-11-15T18:33:45.566Z,99645.88
2022-11-15T18:36:31.028Z,99645.03
2022-11-15T18:50:31.781Z,99637.28
2022-11-15T18:53:17.449Z,99645.09
2022-11-15T18:56:06.957Z,99642.50
2022-11-15T18:58:55.999Z,99637.34
2022-11-15T19:01:44.054Z,99622.63
2022-11-15T19:04:29.209Z,99621.72
2022-11-15T19:07:14.249Z,99622.56
2022-11-15T19:09:59.639Z,99620.91
2022-11-15T19:12:44.468Z,99615.72
2022-11-15T19:15:30.981Z,99610.53
2022-11-15T19:18:16.312Z,99620.03
2022-11-15T19:21:06.414Z,99620.06
2022-11-15T19:23:51.997Z,99607.06
2022-11-15T19:26:37.183Z,99613.06
2022-11-15T19:29:28.386Z,99617.44
2022-11-15T19:32:13.316Z,99615.69
2022-11-15T19:34:58.209Z,99607.03
2022-11-15T19:37:43.096Z,99620.00
2022-11-15T19:40:28.660Z,99609.59
2022-11-15T19:43:13.914Z,99609.59
2022-11-15T19:46:02.479Z,99599.19
2022-11-15T19:48:48.266Z,99593.94
2022-11-15T19:51:33.598Z,99585.28
2022-11-15T19:54:18.740Z,99593.00
2022-11-15T19:57:04.222Z,99597.44
2022-11-15T19:59:48.918Z,99597.50
2022-11-15T20:02:33.730Z,99594.91
2022-11-15T20:05:19.200Z,99591.50
2022-11-15T20:08:04.337Z,99565.41
2022-11-15T20:10:49.346Z,99562.81
2022-11-15T20:13:34.484Z,99572.44
2022-11-15T20:16:22.206Z,99568.16
2022-11-15T20:19:07.166Z,99575.09
2022-11-15T20:21:52.263Z,99568.97
2022-11-15T20:24:37.228Z,99561.22
2022-11-15T20:27:21.968Z,99561.13
2022-11-15T20:30:07.407Z,99559.41
2022-11-15T20:32:52.662Z,99554.25
2022-11-15T20:35:37.682Z,99550.03
2022-11-15T20:38:23.503Z,99556.84
2022-11-15T20:41:08.995Z,99542.94
2022-11-15T20:43:54.053Z,99536.94
2022-11-15T20:46:39.041Z,99544.66
2022-11-15T20:49:24.384Z,99531.66
2022-11-15T20:52:09.794Z,99537.78
2022-11-15T20:54:57.938Z,99536.88
2022-11-15T20:57:42.927Z,99522.06
2022-11-15T21:00:28.045Z,99529.97
2022-11-15T21:03:14.669Z,99513.44
2022-11-15T21:06:00.555Z,99516.94
2022-11-15T21:08:45.607Z,99504.81
2022-11-15T21:11:31.902Z,99509.22
2022-11-15T21:14:29.040Z,99521.44
2022-11-15T21:17:15.628Z,99519.69
2022-11-15T21:20:07.034Z,99532.66
2022-11-15T21:22:53.863Z,99527.41
2022-11-15T21:25:47.657Z,99520.66
2022-11-15T21:28:32.966Z,99529.31
2022-11-15T21:31:18.049Z,99519.78
2022-11-15T21:34:04.900Z,99524.16
2022-11-15T21:36:56.148Z,99533.66
2022-11-15T21:39:41.051Z,99535.38
2022-11-15T21:42:26.111Z,99550.13
2022-11-15T21:45:11.192Z,99547.59
2022-11-15T21:48:02.244Z,99552.72
2022-11-15T21:50:58.043Z,99561.50
2022-11-15T21:53:44.924Z,99552.09
2022-11-15T21:56:31.921Z,99548.50
2022-11-15T21:59:18.941Z,99551.13
2022-11-15T22:02:12.106Z,99541.78
2022-11-15T22:04:57.195Z,99541.75
2022-11-15T22:07:42.230Z,99542.66
2022-11-15T22:10:28.928Z,99542.66
2022-11-15T22:13:14.116Z,99543.47
2022-11-15T22:15:59.897Z,99538.38
2022-11-15T22:18:44.913Z,99540.13
2022-11-15T22:21:30.658Z,99540.97
2022-11-15T22:24:16.152Z,99537.59
2022-11-15T22:27:03.112Z,99535.03
2022-11-15T22:29:54.494Z,99544.56
2022-11-15T22:32:39.469Z,99535.94
2022-11-15T22:35:27.453Z,99536.88
2022-11-15T22:38:12.943Z,99524.84
2022-11-15T22:40:58.519Z,99525.69
2022-11-15T22:43:43.551Z,99525.66
2022-11-15T22:46:31.465Z,99525.81
2022-11-15T22:49:16.602Z,99518.91
2022-11-15T22:52:04.756Z,99523.22
2022-11-15T22:54:51.169Z,99520.59
2022-11-15T22:57:36.548Z,99516.34
2022-11-15T23:00:21.940Z,99519.75
2022-11-15T23:03:07.238Z,99511.13
2022-11-15T23:05:52.675Z,99512.13
2022-11-15T23:08:38.299Z,99504.31
2022-11-15T23:11:23.811Z,99503.47
2022-11-15T23:14:08.709Z,99490.50
2022-11-15T23:16:53.831Z,99498.31
2022-11-15T23:19:38.839Z,99495.75
2022-11-15T23:22:23.854Z,99487.97
2022-11-15T23:25:09.125Z,99492.38
2022-11-15T23:27:54.342Z,99490.59
2022-11-15T23:30:39.228Z,99497.50
2022-11-15T23:33:24.646Z,99487.16
2022-11-15T23:36:09.668Z,99486.34
2022-11-15T23:38:55.579Z,99493.22
2022-11-15T23:41:40.467Z,99493.25
2022-11-15T23:44:25.916Z,99492.41
2022-11-15T23:47:10.911Z,99486.41
2022-11-15T23:49:55.864Z,99492.44
2022-11-15T23:52:40.656Z,99499.34
2022-11-15T23:55:25.887Z,99491.56
2022-11-15T23:58:10.802Z,99483.81
